createdAt,value
2022-09-21T05:33:46.036Z,52.34
2022-09-21T05:36:00.313Z,52.25
2022-09-21T05:38:09.709Z,51.54
2022-09-21T05:40:14.947Z,51.57
2022-09-21T05:42:18.824Z,51.22
2022-09-21T05:44:22.755Z,50.95
2022-09-21T05:46:38.846Z,50.71
2022-09-21T05:48:50.818Z,50.72
2022-09-21T05:51:03.425Z,50.39
2022-09-21T05:53:20.838Z,50.50
2022-09-21T05:55:45.836Z,50.36
2022-09-21T05:57:57.245Z,50.48
2022-09-21T06:00:09.464Z,50.16
2022-09-21T06:02:24.446Z,50.09
2022-09-21T06:04:29.955Z,50.17
2022-09-21T06:06:33.547Z,50.17
2022-09-21T06:08:37.356Z,50.16
2022-09-21T06:10:40.847Z,50.13
2022-09-21T06:12:44.667Z,50.17
2022-09-21T06:14:47.744Z,50.06
2022-09-21T06:16:51.059Z,50.12
2022-09-21T06:18:54.316Z,49.76
2022-09-21T06:20:58.982Z,49.76
2022-09-21T06:23:02.778Z,49.53
2022-09-21T06:25:07.949Z,49.87
2022-09-21T06:27:11.236Z,49.85
2022-09-21T06:29:18.848Z,49.90
2022-09-21T06:31:25.096Z,49.73
2022-09-21T06:33:28.816Z,49.58
2022-09-21T06:35:33.309Z,49.48
2022-09-21T06:37:40.516Z,49.64
2022-09-21T06:39:43.709Z,49.40
2022-09-21T06:41:47.098Z,49.39
2022-09-21T06:43:55.027Z,49.59
2022-09-21T06:46:00.391Z,49.23
2022-09-21T06:48:04.513Z,49.27
2022-09-21T06:50:11.370Z,49.19
2022-09-21T06:52:15.220Z,49.21
2022-09-21T06:54:19.921Z,49.01
2022-09-21T06:56:23.335Z,49.15
2022-09-21T06:58:29.699Z,49.28
2022-09-21T07:00:33.806Z,48.83
2022-09-21T07:02:37.202Z,49.13
2022-09-21T07:04:40.806Z,48.98
2022-09-21T07:06:44.173Z,48.94
2022-09-21T07:11:16.559Z,48.94
2022-09-21T07:13:20.169Z,48.59
2022-09-21T07:15:25.075Z,48.63
2022-09-21T07:17:33.308Z,48.85
2022-09-21T07:19:37.519Z,48.83
2022-09-21T07:21:42.280Z,48.72
2022-09-21T07:23:45.641Z,48.51
2022-09-21T07:25:50.848Z,48.72
2022-09-21T07:27:55.594Z,48.65
2022-09-21T07:29:59.264Z,48.85
2022-09-21T07:32:04.798Z,48.55
2022-09-21T07:34:08.298Z,48.47
2022-09-21T07:36:15.411Z,48.37
2022-09-21T07:38:20.441Z,48.41
2022-09-21T07:40:25.333Z,48.49
2022-09-21T07:42:30.825Z,48.50
2022-09-21T07:44:35.611Z,48.31
2022-09-21T07:46:47.161Z,48.36
2022-09-21T07:48:54.412Z,48.24
2022-09-21T07:51:04.524Z,48.25
2022-09-21T07:53:07.977Z,47.74
2022-09-21T07:55:11.317Z,47.89
2022-09-21T07:57:33.747Z,47.90
2022-09-21T07:59:38.629Z,48.03
2022-09-21T08:01:43.191Z,48.12
2022-09-21T08:03:47.030Z,48.09
2022-09-21T08:05:51.620Z,47.93
2022-09-21T08:07:57.194Z,47.94
2022-09-21T08:10:00.790Z,47.88
2022-09-21T08:12:04.460Z,47.79
2022-09-21T08:14:08.081Z,48.08
2022-09-21T08:16:14.534Z,48.16
2022-09-21T08:18:18.349Z,48.02
2022-09-21T08:20:23.612Z,47.82
2022-09-21T08:22:27.569Z,47.91
2022-09-21T08:24:31.472Z,47.89
2022-09-21T08:26:34.894Z,47.75
2022-09-21T08:28:38.975Z,47.61
2022-09-21T08:30:42.908Z,47.62
2022-09-21T08:32:51.460Z,47.86
2022-09-21T08:34:54.938Z,47.45
2022-09-21T08:36:59.027Z,47.35
2022-09-21T08:39:02.727Z,47.46
2022-09-21T08:41:17.383Z,47.48
2022-09-21T08:43:31.020Z,47.36
2022-09-21T08:45:39.624Z,47.17
2022-09-21T08:47:45.780Z,47.27
2022-09-21T08:49:54.810Z,47.32
2022-09-21T08:52:02.022Z,47.07
2022-09-21T08:54:11.932Z,47.18
2022-09-21T08:56:18.987Z,46.86
2022-09-21T08:58:24.745Z,47.11
2022-09-21T09:00:30.982Z,47.23
2022-09-21T09:02:44.868Z,46.87
2022-09-21T09:04:59.520Z,46.82
2022-09-21T09:07:17.360Z,46.90
2022-09-21T09:09:44.395Z,46.59
2022-09-21T09:12:01.718Z,46.64
2022-09-21T09:14:26.994Z,46.52
2022-09-21T09:16:38.307Z,46.58
2022-09-21T09:18:47.117Z,46.67
2022-09-21T09:21:00.339Z,46.36
2022-09-21T09:23:12.828Z,46.26
2022-09-21T09:25:24.639Z,46.20
2022-09-21T09:27:31.768Z,46.31
2022-09-21T09:29:45.528Z,46.18
2022-09-21T09:31:50.452Z,46.38
2022-09-21T09:34:01.730Z,46.24
2022-09-21T09:36:09.150Z,46.23
2022-09-21T09:38:23.977Z,46.18
2022-09-21T09:40:54.742Z,46.17
2022-09-21T09:43:05.043Z,46.10
2022-09-21T09:45:39.904Z,45.87
2022-09-21T09:47:59.193Z,45.82
2022-09-21T09:50:08.120Z,45.78
2022-09-21T09:52:17.453Z,45.77
2022-09-21T09:54:31.151Z,45.68
2022-09-21T09:56:34.451Z,45.75
2022-09-21T09:58:43.669Z,45.52
2022-09-21T10:00:49.040Z,45.54
2022-09-21T10:02:56.215Z,45.49
2022-09-21T10:05:08.388Z,45.58
2022-09-21T10:07:20.971Z,45.25
2022-09-21T10:09:29.076Z,45.32
2022-09-21T10:11:39.866Z,45.44
2022-09-21T10:13:44.444Z,45.37
2022-09-21T10:15:51.752Z,45.16
2022-09-21T10:18:03.175Z,45.15
2022-09-21T10:20:12.725Z,44.97
2022-09-21T10:22:18.626Z,45.18
2022-09-21T10:24:25.776Z,45.00
2022-09-21T10:26:33.923Z,44.93
2022-09-21T10:28:38.371Z,44.91
2022-09-21T10:30:41.803Z,44.76
2022-09-21T10:32:56.857Z,44.75
2022-09-21T10:35:15.864Z,44.44
2022-09-21T10:37:28.809Z,44.72
2022-09-21T10:39:34.020Z,44.52
2022-09-21T10:41:38.869Z,44.44
2022-09-21T10:43:44.588Z,44.36
2022-09-21T10:45:55.445Z,44.29
2022-09-21T10:48:08.481Z,44.38
2022-09-21T10:50:25.863Z,44.33
2022-09-21T10:52:36.392Z,44.27
2022-09-21T10:54:43.028Z,44.01
2022-09-21T10:56:56.340Z,44.17
2022-09-21T10:59:15.073Z,44.00
2022-09-21T11:01:24.523Z,43.93
2022-09-21T11:03:46.161Z,43.74
2022-09-21T11:05:51.947Z,43.99
2022-09-21T11:07:59.821Z,44.04
2022-09-21T11:10:13.331Z,44.26
2022-09-21T11:12:32.724Z,44.37
2022-09-21T11:14:46.724Z,44.44
2022-09-21T11:16:56.801Z,44.40
2022-09-21T11:19:07.310Z,44.56
2022-09-21T11:21:18.208Z,44.63
2022-09-21T11:23:40.994Z,44.66
2022-09-21T11:25:51.221Z,44.67
2022-09-21T11:28:01.689Z,44.65
2022-09-21T11:30:08.328Z,44.92
2022-09-21T11:32:33.117Z,44.88
2022-09-21T11:35:00.206Z,45.02
2022-09-21T11:37:15.215Z,45.08
2022-09-21T11:39:30.348Z,45.16
2022-09-21T11:41:50.640Z,45.19
2022-09-21T11:44:20.079Z,45.31
2022-09-21T11:46:31.994Z,45.34
2022-09-21T11:48:57.852Z,45.40
2022-09-21T11:51:15.534Z,45.35
2022-09-21T11:53:36.155Z,45.61
2022-09-21T11:55:55.344Z,45.54
2022-09-21T11:58:10.308Z,45.56
2022-09-21T12:00:18.206Z,45.57
2022-09-21T12:02:37.876Z,45.60
2022-09-21T12:04:49.531Z,45.60
2022-09-21T12:07:08.416Z,45.55
2022-09-21T12:09:36.176Z,45.66
2022-09-21T12:11:46.944Z,45.72
2022-09-21T12:13:59.245Z,45.80
2022-09-21T12:16:12.722Z,45.75
2022-09-21T12:18:24.796Z,45.54
2022-09-21T12:20:38.939Z,45.74
2022-09-21T12:22:46.578Z,45.66
2022-09-21T12:24:54.151Z,45.81
2022-09-21T12:27:00.672Z,45.74
2022-09-21T12:29:14.709Z,45.81
2022-09-21T12:31:24.688Z,45.82
2022-09-21T12:33:36.753Z,45.61
2022-09-21T12:35:49.125Z,45.73
2022-09-21T12:37:59.176Z,45.59
2022-09-21T12:40:07.784Z,45.64
2022-09-21T12:42:24.422Z,45.61
2022-09-21T12:44:52.266Z,45.67
2022-09-21T12:47:09.784Z,45.50
2022-09-21T12:49:20.850Z,45.66
2022-09-21T12:51:30.385Z,45.54
2022-09-21T12:53:37.820Z,45.69
2022-09-21T12:55:47.925Z,45.52
2022-09-21T12:58:14.594Z,45.78
2022-09-21T13:00:22.666Z,45.36
2022-09-21T13:02:35.358Z,45.68
2022-09-21T13:04:50.397Z,45.57
2022-09-21T13:07:31.108Z,45.57
2022-09-21T13:09:35.711Z,45.44
2022-09-21T13:11:54.075Z,45.56
2022-09-21T13:14:01.261Z,45.43
2022-09-21T13:16:08.048Z,45.26
2022-09-21T13:18:22.224Z,45.33
2022-09-21T13:20:25.498Z,45.35
2022-09-21T13:22:33.465Z,45.39
2022-09-21T13:24:36.868Z,45.29
2022-09-21T13:26:42.412Z,45.43
2022-09-21T13:29:26.239Z,45.19
2022-09-21T13:31:59.566Z,45.27
2022-09-21T13:34:22.470Z,45.13
2022-09-21T13:36:34.513Z,45.13
2022-09-21T13:39:05.089Z,45.11
2022-09-21T13:41:40.257Z,45.11
2022-09-21T13:44:05.239Z,45.11
2022-09-21T13:46:08.760Z,44.83
2022-09-21T13:48:27.578Z,45.00
2022-09-21T13:50:39.866Z,44.98
2022-09-21T13:52:48.570Z,44.77
2022-09-21T13:54:54.264Z,44.87
2022-09-21T13:57:09.611Z,44.80
2022-09-21T13:59:23.180Z,44.87
2022-09-21T14:01:46.642Z,44.67
2022-09-21T14:03:57.392Z,44.50
2022-09-21T14:06:06.530Z,44.66
2022-09-21T14:08:23.525Z,44.48
2022-09-21T14:10:27.654Z,44.48
2022-09-21T14:12:39.467Z,44.42
2022-09-21T14:14:45.624Z,44.37
2022-09-21T14:16:58.283Z,44.23
2022-09-21T14:19:05.113Z,44.09
2022-09-21T14:21:19.621Z,43.99
2022-09-21T14:23:29.983Z,44.04
2022-09-21T14:25:53.266Z,43.80
2022-09-21T14:28:01.238Z,43.88
2022-09-21T14:30:08.427Z,43.45
2022-09-21T14:32:17.757Z,43.48
2022-09-21T14:34:26.856Z,43.27
2022-09-21T14:36:37.497Z,43.24
2022-09-21T14:38:52.602Z,42.90
2022-09-21T14:41:00.849Z,42.79
2022-09-21T14:43:09.819Z,43.05
2022-09-21T14:45:20.360Z,42.87
2022-09-21T14:47:52.017Z,42.83
2022-09-21T14:50:08.139Z,42.53
2022-09-21T14:52:29.738Z,42.54
2022-09-21T14:54:42.410Z,42.50
2022-09-21T14:57:00.392Z,42.26
2022-09-21T14:59:21.148Z,42.09
2022-09-21T15:01:37.831Z,41.97
2022-09-21T15:04:04.354Z,41.64
2022-09-21T15:06:38.056Z,41.73
2022-09-21T15:09:11.958Z,41.52
2022-09-21T15:11:22.249Z,41.40
2022-09-21T15:13:58.355Z,41.13
2022-09-21T15:16:17.844Z,41.17
2022-09-21T15:18:23.118Z,41.22
2022-09-21T15:20:28.209Z,41.13
2022-09-21T15:22:32.733Z,40.58
2022-09-21T15:24:35.831Z,40.74
2022-09-21T15:26:40.858Z,40.76
2022-09-21T15:29:13.969Z,40.59
2022-09-21T15:31:12.702Z,40.70
2022-09-21T15:33:16.189Z,40.64
2022-09-21T15:35:22.066Z,40.39
2022-09-21T15:37:25.372Z,40.57
2022-09-21T15:39:32.224Z,40.30
2022-09-21T15:41:41.191Z,40.42
2022-09-21T15:43:48.065Z,40.46
2022-09-21T15:45:55.962Z,40.13
2022-09-21T15:48:00.244Z,40.38
2022-09-21T15:50:04.010Z,40.36
2022-09-21T15:52:12.933Z,40.08
2022-09-21T15:54:27.012Z,39.84
2022-09-21T15:56:32.074Z,39.98
2022-09-21T15:58:38.040Z,39.82
2022-09-21T16:00:41.324Z,39.94
2022-09-21T16:02:53.070Z,39.91
2022-09-21T16:04:57.423Z,39.73
2022-09-21T16:07:04.913Z,39.76
2022-09-21T16:09:35.257Z,39.61
2022-09-21T16:11:39.714Z,39.67
2022-09-21T16:14:00.636Z,39.46
2022-09-21T16:16:06.040Z,39.54
2022-09-21T16:18:32.329Z,39.57
2022-09-21T16:20:45.707Z,39.72
2022-09-21T16:22:50.784Z,39.59
2022-09-21T16:24:56.404Z,39.61
2022-09-21T16:27:03.328Z,39.46
2022-09-21T16:29:23.488Z,39.43
2022-09-21T16:31:36.161Z,39.50
2022-09-21T16:33:42.731Z,39.52
2022-09-21T16:35:46.202Z,39.42
2022-09-21T16:37:50.790Z,39.47
2022-09-21T16:39:54.059Z,39.37
2022-09-21T16:42:00.162Z,39.26
2022-09-21T16:44:04.869Z,39.35
2022-09-21T16:46:08.595Z,39.24
2022-09-21T16:48:13.622Z,39.34
2022-09-21T16:50:18.932Z,39.33
2022-09-21T16:52:23.108Z,39.54
2022-09-21T16:54:27.275Z,39.34
2022-09-21T16:56:31.315Z,39.28
2022-09-21T16:58:34.305Z,39.34
2022-09-21T17:00:42.892Z,39.38
2022-09-21T17:02:45.644Z,39.36
2022-09-21T17:04:48.988Z,39.26
2022-09-21T17:06:52.720Z,39.37
2022-09-21T17:08:55.640Z,39.34
2022-09-21T17:11:00.018Z,39.33
2022-09-21T17:13:04.392Z,39.23
2022-09-21T17:15:09.906Z,39.23
2022-09-21T17:17:18.318Z,39.18
2022-09-21T17:19:21.782Z,39.36
2022-09-21T17:21:25.181Z,39.25
2022-09-21T17:23:29.269Z,39.07
2022-09-21T17:25:32.974Z,39.13
2022-09-21T17:27:36.792Z,39.02
2022-09-21T17:29:41.262Z,39.02
2022-09-21T17:31:44.449Z,39.03
2022-09-21T17:33:50.539Z,39.03
2022-09-21T17:35:55.640Z,39.13
2022-09-21T17:37:59.219Z,38.97
2022-09-21T17:40:04.955Z,38.88
2022-09-21T17:42:19.060Z,38.91
2022-09-21T17:44:42.400Z,38.84
2022-09-21T17:46:52.271Z,38.90
2022-09-21T17:48:57.613Z,38.90
2022-09-21T17:51:01.103Z,38.84
2022-09-21T17:53:22.327Z,38.92
2022-09-21T17:55:25.819Z,38.82
2022-09-21T17:57:40.468Z,38.81
2022-09-21T17:59:48.671Z,38.91
2022-09-21T18:01:52.151Z,38.81
2022-09-21T18:03:57.446Z,38.75
2022-09-21T18:06:01.613Z,38.88
2022-09-21T18:08:05.518Z,38.81
2022-09-21T18:10:14.032Z,38.65
2022-09-21T18:12:46.358Z,38.59
2022-09-21T18:15:00.344Z,38.74
2022-09-21T18:17:16.230Z,38.58
2022-09-21T18:19:35.265Z,38.57
2022-09-21T18:21:42.265Z,38.52
2022-09-21T18:24:08.034Z,38.67
2022-09-21T18:26:16.493Z,38.60
2022-09-21T18:28:24.603Z,38.68
2022-09-21T18:30:28.504Z,38.53
2022-09-21T18:32:55.401Z,38.44
2022-09-21T18:35:13.278Z,38.55
2022-09-21T18:37:23.562Z,38.57
2022-09-21T18:39:37.510Z,38.50
2022-09-21T18:41:50.039Z,38.39
2022-09-21T18:44:05.330Z,38.35
2022-09-21T18:46:14.827Z,38.50
2022-09-21T18:48:24.454Z,38.56
2022-09-21T18:50:36.360Z,38.18
2022-09-21T18:52:51.999Z,38.39
2022-09-21T18:54:55.354Z,38.38
2022-09-21T18:56:59.124Z,38.57
2022-09-21T18:59:02.908Z,38.39
2022-09-21T19:01:06.796Z,38.41
2022-09-21T19:03:18.218Z,38.58
2022-09-21T19:05:22.831Z,38.58
2022-09-21T19:07:39.892Z,38.57
2022-09-21T19:09:52.269Z,38.49
2022-09-21T19:12:03.677Z,38.52
2022-09-21T19:14:18.312Z,38.54
2022-09-21T19:16:30.203Z,38.77
2022-09-21T19:18:41.662Z,38.59
2022-09-21T19:20:57.927Z,38.51
2022-09-21T19:23:18.004Z,38.65
2022-09-21T19:25:31.055Z,38.42
2022-09-21T19:27:39.700Z,38.59
2022-09-21T19:29:52.268Z,38.56
2022-09-21T19:31:55.843Z,38.38
2022-09-21T19:33:59.116Z,38.61
2022-09-21T19:36:02.628Z,38.60
2022-09-21T19:38:09.871Z,38.61
2022-09-21T19:40:13.644Z,38.64
2022-09-21T19:42:30.061Z,38.75
2022-09-21T19:44:56.311Z,38.68
2022-09-21T19:47:07.383Z,38.79
2022-09-21T19:49:18.446Z,38.79
2022-09-21T19:51:29.049Z,38.70
2022-09-21T19:53:51.960Z,38.60
2022-09-21T19:56:15.597Z,38.77
2022-09-21T19:58:36.443Z,38.74
2022-09-21T20:00:40.263Z,38.77
2022-09-21T20:02:55.780Z,38.88
2022-09-21T20:05:04.086Z,38.99
2022-09-21T20:07:18.996Z,38.92
2022-09-21T20:09:29.572Z,38.86
2022-09-21T20:11:42.945Z,38.80
2022-09-21T20:14:00.021Z,38.88
2022-09-21T20:16:24.287Z,38.77
2022-09-21T20:18:38.525Z,39.05
2022-09-21T20:20:43.228Z,39.00
2022-09-21T20:22:47.068Z,39.13
2022-09-21T20:24:58.079Z,39.22
2022-09-21T20:27:03.555Z,38.91
2022-09-21T20:29:07.190Z,38.97
2022-09-21T20:31:10.560Z,38.91
2022-09-21T20:33:16.071Z,39.00
2022-09-21T20:35:21.947Z,39.14
2022-09-21T20:37:26.251Z,39.16
2022-09-21T20:39:29.442Z,39.19
2022-09-21T20:41:33.973Z,39.03
2022-09-21T20:43:37.095Z,39.07
2022-09-21T20:45:40.796Z,39.09
2022-09-21T20:47:44.276Z,39.15
2022-09-21T20:49:47.771Z,39.12
2022-09-21T20:51:50.706Z,39.14
2022-09-21T20:53:53.837Z,39.11
2022-09-21T20:55:58.848Z,39.18
2022-09-21T20:58:03.137Z,39.30
2022-09-21T21:00:07.905Z,39.12
